sensor_id;sensor_type;location;lat;lon;timestamp;P1;durP1;ratioP1;P2;durP2;ratioP2
8113;SDS011;4099;52.684;9.918;2022-08-04T00:04:01;5.50;;;3.90;;
8113;SDS011;4099;52.684;9.918;2022-08-04T00:09:08;4.90;;;3.93;;
8113;SDS011;4099;52.684;9.918;2022-08-04T00:14:14;4.70;;;3.70;;
8113;SDS011;4099;52.684;9.918;2022-08-04T00:19:21;4.40;;;3.63;;
8113;SDS011;4099;52.684;9.918;2022-08-04T00:24:29;5.70;;;4.33;;
8113;SDS011;4099;52.684;9.918;2022-08-04T00:29:32;4.00;;;3.70;;
8113;SDS011;4099;52.684;9.918;2022-08-04T00:34:35;4.50;;;4.00;;
8113;SDS011;4099;52.684;9.918;2022-08-04T00:39:39;4.53;;;4.10;;
8113;SDS011;4099;52.684;9.918;2022-08-04T00:44:45;4.37;;;3.53;;
8113;SDS011;4099;52.684;9.918;2022-08-04T00:50:07;4.80;;;4.07;;
8113;SDS011;4099;52.684;9.918;2022-08-04T00:55:18;9.30;;;4.20;;
8113;SDS011;4099;52.684;9.918;2022-08-04T01:00:32;4.10;;;3.80;;
8113;SDS011;4099;52.684;9.918;2022-08-04T01:05:46;4.57;;;3.67;;
8113;SDS011;4099;52.684;9.918;2022-08-04T01:11:01;6.07;;;4.10;;
8113;SDS011;4099;52.684;9.918;2022-08-04T01:16:09;5.53;;;4.17;;
8113;SDS011;4099;52.684;9.918;2022-08-04T01:21:25;4.47;;;4.07;;
8113;SDS011;4099;52.684;9.918;2022-08-04T01:26:51;6.73;;;4.57;;
8113;SDS011;4099;52.684;9.918;2022-08-04T01:32:02;5.33;;;4.17;;
8113;SDS011;4099;52.684;9.918;2022-08-04T01:37:07;4.37;;;4.00;;
8113;SDS011;4099;52.684;9.918;2022-08-04T01:42:12;5.37;;;4.13;;
8113;SDS011;4099;52.684;9.918;2022-08-04T01:47:20;10.60;;;4.37;;
8113;SDS011;4099;52.684;9.918;2022-08-04T01:52:22;9.63;;;5.80;;
8113;SDS011;4099;52.684;9.918;2022-08-04T01:57:26;8.50;;;6.20;;
8113;SDS011;4099;52.684;9.918;2022-08-04T02:02:31;6.37;;;4.83;;
8113;SDS011;4099;52.684;9.918;2022-08-04T02:07:39;6.23;;;4.60;;
8113;SDS011;4099;52.684;9.918;2022-08-04T02:12:51;6.57;;;4.80;;
8113;SDS011;4099;52.684;9.918;2022-08-04T02:18:02;6.77;;;5.17;;
8113;SDS011;4099;52.684;9.918;2022-08-04T02:23:05;4.73;;;4.20;;
8113;SDS011;4099;52.684;9.918;2022-08-04T02:28:15;6.70;;;4.40;;
8113;SDS011;4099;52.684;9.918;2022-08-04T02:33:33;8.37;;;4.50;;
8113;SDS011;4099;52.684;9.918;2022-08-04T02:38:50;6.97;;;4.57;;
8113;SDS011;4099;52.684;9.918;2022-08-04T02:43:57;6.97;;;4.90;;
8113;SDS011;4099;52.684;9.918;2022-08-04T02:49:02;6.73;;;4.13;;
8113;SDS011;4099;52.684;9.918;2022-08-04T02:54:06;7.40;;;4.73;;
8113;SDS011;4099;52.684;9.918;2022-08-04T02:59:09;5.27;;;3.90;;
8113;SDS011;4099;52.684;9.918;2022-08-04T03:04:26;5.20;;;4.20;;
8113;SDS011;4099;52.684;9.918;2022-08-04T03:09:51;5.60;;;4.40;;
8113;SDS011;4099;52.684;9.918;2022-08-04T03:15:43;8.67;;;4.60;;
8113;SDS011;4099;52.684;9.918;2022-08-04T03:32:14;7.73;;;4.37;;
8113;SDS011;4099;52.684;9.918;2022-08-04T03:37:37;8.60;;;4.70;;
8113;SDS011;4099;52.684;9.918;2022-08-04T03:48:38;5.20;;;4.70;;
8113;SDS011;4099;52.684;9.918;2022-08-04T03:54:24;5.63;;;4.40;;
8113;SDS011;4099;52.684;9.918;2022-08-04T03:59:48;9.17;;;4.77;;
8113;SDS011;4099;52.684;9.918;2022-08-04T04:05:20;6.63;;;4.40;;
8113;SDS011;4099;52.684;9.918;2022-08-04T04:16:25;10.43;;;5.27;;
8113;SDS011;4099;52.684;9.918;2022-08-04T04:21:45;9.50;;;4.83;;
8113;SDS011;4099;52.684;9.918;2022-08-04T04:27:01;6.37;;;5.17;;
8113;SDS011;4099;52.684;9.918;2022-08-04T04:32:20;8.83;;;5.37;;
8113;SDS011;4099;52.684;9.918;2022-08-04T04:37:30;5.53;;;4.60;;
8113;SDS011;4099;52.684;9.918;2022-08-04T04:42:53;5.30;;;4.30;;
8113;SDS011;4099;52.684;9.918;2022-08-04T04:48:11;5.40;;;4.47;;
8113;SDS011;4099;52.684;9.918;2022-08-04T04:53:23;6.83;;;4.63;;
8113;SDS011;4099;52.684;9.918;2022-08-04T04:58:32;5.60;;;5.10;;
8113;SDS011;4099;52.684;9.918;2022-08-04T05:03:47;7.17;;;5.30;;
8113;SDS011;4099;52.684;9.918;2022-08-04T05:09:17;6.57;;;4.80;;
8113;SDS011;4099;52.684;9.918;2022-08-04T05:14:30;8.53;;;5.60;;
8113;SDS011;4099;52.684;9.918;2022-08-04T05:19:38;5.93;;;4.60;;
8113;SDS011;4099;52.684;9.918;2022-08-04T05:24:47;7.73;;;5.50;;
8113;SDS011;4099;52.684;9.918;2022-08-04T05:29:58;5.90;;;4.93;;
8113;SDS011;4099;52.684;9.918;2022-08-04T05:35:03;9.13;;;5.00;;
8113;SDS011;4099;52.684;9.918;2022-08-04T05:40:08;7.63;;;4.80;;
8113;SDS011;4099;52.684;9.918;2022-08-04T05:45:14;8.20;;;5.20;;
8113;SDS011;4099;52.684;9.918;2022-08-04T05:50:16;8.13;;;5.17;;
8113;SDS011;4099;52.684;9.918;2022-08-04T05:55:19;8.10;;;5.10;;
8113;SDS011;4099;52.684;9.918;2022-08-04T06:00:23;10.70;;;5.37;;
8113;SDS011;4099;52.684;9.918;2022-08-04T06:05:26;6.47;;;5.20;;
8113;SDS011;4099;52.684;9.918;2022-08-04T06:10:30;6.07;;;4.90;;
8113;SDS011;4099;52.684;9.918;2022-08-04T06:15:36;6.20;;;4.80;;
8113;SDS011;4099;52.684;9.918;2022-08-04T06:20:40;6.70;;;5.50;;
8113;SDS011;4099;52.684;9.918;2022-08-04T06:25:44;6.17;;;5.17;;
8113;SDS011;4099;52.684;9.918;2022-08-04T06:30:50;5.83;;;5.23;;
8113;SDS011;4099;52.684;9.918;2022-08-04T06:35:54;6.17;;;5.10;;
8113;SDS011;4099;52.684;9.918;2022-08-04T06:40:58;7.07;;;5.10;;
8113;SDS011;4099;52.684;9.918;2022-08-04T06:46:04;5.40;;;5.00;;
8113;SDS011;4099;52.684;9.918;2022-08-04T06:51:07;5.13;;;4.73;;
8113;SDS011;4099;52.684;9.918;2022-08-04T06:56:12;6.17;;;5.27;;
8113;SDS011;4099;52.684;9.918;2022-08-04T07:01:16;5.70;;;5.10;;
8113;SDS011;4099;52.684;9.918;2022-08-04T07:06:21;7.80;;;5.00;;
8113;SDS011;4099;52.684;9.918;2022-08-04T07:11:24;5.88;;;4.63;;
8113;SDS011;4099;52.684;9.918;2022-08-04T07:16:28;5.88;;;4.40;;
8113;SDS011;4099;52.684;9.918;2022-08-04T07:21:32;6.35;;;4.60;;
8113;SDS011;4099;52.684;9.918;2022-08-04T07:26:35;7.18;;;4.90;;
8113;SDS011;4099;52.684;9.918;2022-08-04T07:31:38;5.80;;;5.25;;
8113;SDS011;4099;52.684;9.918;2022-08-04T07:36:40;5.63;;;5.00;;
8113;SDS011;4099;52.684;9.918;2022-08-04T07:41:42;5.30;;;4.80;;
8113;SDS011;4099;52.684;9.918;2022-08-04T07:46:45;5.10;;;4.70;;
8113;SDS011;4099;52.684;9.918;2022-08-04T07:51:49;4.82;;;4.43;;
8113;SDS011;4099;52.684;9.918;2022-08-04T07:56:51;4.63;;;4.22;;
8113;SDS011;4099;52.684;9.918;2022-08-04T08:01:55;4.47;;;4.13;;
8113;SDS011;4099;52.684;9.918;2022-08-04T08:07:00;5.18;;;4.25;;
8113;SDS011;4099;52.684;9.918;2022-08-04T08:12:01;4.80;;;4.28;;
8113;SDS011;4099;52.684;9.918;2022-08-04T08:17:05;4.68;;;4.28;;
8113;SDS011;4099;52.684;9.918;2022-08-04T08:22:09;4.50;;;4.10;;
8113;SDS011;4099;52.684;9.918;2022-08-04T08:27:11;5.20;;;4.07;;
8113;SDS011;4099;52.684;9.918;2022-08-04T08:32:14;4.70;;;4.20;;
8113;SDS011;4099;52.684;9.918;2022-08-04T08:37:17;4.78;;;4.38;;
8113;SDS011;4099;52.684;9.918;2022-08-04T08:42:31;4.20;;;3.70;;
8113;SDS011;4099;52.684;9.918;2022-08-04T08:47:55;4.45;;;4.05;;
8113;SDS011;4099;52.684;9.918;2022-08-04T08:53:23;4.10;;;3.70;;
8113;SDS011;4099;52.684;9.918;2022-08-04T08:58:39;3.90;;;3.50;;
8113;SDS011;4099;52.684;9.918;2022-08-04T09:09:42;3.70;;;3.40;;
8113;SDS011;4099;52.684;9.918;2022-08-04T09:14:52;4.13;;;3.42;;
8113;SDS011;4099;52.684;9.918;2022-08-04T09:20:00;3.70;;;3.40;;
8113;SDS011;4099;52.684;9.918;2022-08-04T09:25:08;3.67;;;3.38;;
8113;SDS011;4099;52.684;9.918;2022-08-04T09:30:14;3.90;;;3.50;;
8113;SDS011;4099;52.684;9.918;2022-08-04T09:35:22;3.75;;;3.45;;
8113;SDS011;4099;52.684;9.918;2022-08-04T09:40:36;3.28;;;3.08;;
8113;SDS011;4099;52.684;9.918;2022-08-04T09:45:44;4.05;;;3.55;;
8113;SDS011;4099;52.684;9.918;2022-08-04T09:50:57;3.53;;;3.25;;
8113;SDS011;4099;52.684;9.918;2022-08-04T09:56:02;3.20;;;3.00;;
8113;SDS011;4099;52.684;9.918;2022-08-04T10:01:10;3.55;;;3.20;;
8113;SDS011;4099;52.684;9.918;2022-08-04T10:06:26;3.70;;;3.40;;
8113;SDS011;4099;52.684;9.918;2022-08-04T10:11:42;3.30;;;3.00;;
8113;SDS011;4099;52.684;9.918;2022-08-04T10:16:56;2.92;;;2.67;;
8113;SDS011;4099;52.684;9.918;2022-08-04T10:22:10;3.20;;;3.00;;
8113;SDS011;4099;52.684;9.918;2022-08-04T10:27:20;3.20;;;2.92;;
8113;SDS011;4099;52.684;9.918;2022-08-04T10:32:26;3.13;;;2.92;;
8113;SDS011;4099;52.684;9.918;2022-08-04T10:37:38;3.13;;;2.83;;
8113;SDS011;4099;52.684;9.918;2022-08-04T10:42:45;3.22;;;2.92;;
8113;SDS011;4099;52.684;9.918;2022-08-04T10:47:58;3.10;;;2.90;;
8113;SDS011;4099;52.684;9.918;2022-08-04T10:53:10;2.92;;;2.50;;
8113;SDS011;4099;52.684;9.918;2022-08-04T10:58:15;2.92;;;2.72;;
8113;SDS011;4099;52.684;9.918;2022-08-04T11:03:20;3.10;;;2.80;;
8113;SDS011;4099;52.684;9.918;2022-08-04T11:08:28;2.85;;;2.65;;
8113;SDS011;4099;52.684;9.918;2022-08-04T11:13:37;3.20;;;2.90;;
8113;SDS011;4099;52.684;9.918;2022-08-04T11:18:45;3.35;;;3.10;;
8113;SDS011;4099;52.684;9.918;2022-08-04T11:23:59;2.88;;;2.70;;
8113;SDS011;4099;52.684;9.918;2022-08-04T11:29:04;3.80;;;2.80;;
8113;SDS011;4099;52.684;9.918;2022-08-04T11:34:18;3.17;;;2.70;;
8113;SDS011;4099;52.684;9.918;2022-08-04T11:39:24;2.78;;;2.60;;
8113;SDS011;4099;52.684;9.918;2022-08-04T11:44:31;3.25;;;2.95;;
8113;SDS011;4099;52.684;9.918;2022-08-04T11:49:39;3.53;;;2.35;;
8113;SDS011;4099;52.684;9.918;2022-08-04T11:54:44;2.58;;;2.45;;
8113;SDS011;4099;52.684;9.918;2022-08-04T11:59:49;2.72;;;2.47;;
8113;SDS011;4099;52.684;9.918;2022-08-04T12:04:56;2.72;;;2.60;;
8113;SDS011;4099;52.684;9.918;2022-08-04T12:10:04;2.88;;;2.72;;
8113;SDS011;4099;52.684;9.918;2022-08-04T12:15:15;3.08;;;2.88;;
8113;SDS011;4099;52.684;9.918;2022-08-04T12:20:23;2.92;;;2.72;;
8113;SDS011;4099;52.684;9.918;2022-08-04T12:25:32;3.22;;;3.03;;
8113;SDS011;4099;52.684;9.918;2022-08-04T12:30:39;3.30;;;3.10;;
8113;SDS011;4099;52.684;9.918;2022-08-04T12:35:46;3.30;;;3.05;;
8113;SDS011;4099;52.684;9.918;2022-08-04T12:40:54;2.95;;;2.72;;
8113;SDS011;4099;52.684;9.918;2022-08-04T12:45:59;2.85;;;2.65;;
8113;SDS011;4099;52.684;9.918;2022-08-04T12:51:03;2.97;;;2.85;;
8113;SDS011;4099;52.684;9.918;2022-08-04T12:56:12;3.10;;;2.90;;
8113;SDS011;4099;52.684;9.918;2022-08-04T13:01:16;3.67;;;2.90;;
8113;SDS011;4099;52.684;9.918;2022-08-04T13:06:22;2.80;;;2.60;;
8113;SDS011;4099;52.684;9.918;2022-08-04T13:11:27;3.15;;;2.95;;
8113;SDS011;4099;52.684;9.918;2022-08-04T13:16:33;3.17;;;2.97;;
8113;SDS011;4099;52.684;9.918;2022-08-04T13:21:39;6.18;;;2.78;;
8113;SDS011;4099;52.684;9.918;2022-08-04T13:26:52;2.90;;;2.70;;
8113;SDS011;4099;52.684;9.918;2022-08-04T13:31:56;3.17;;;2.97;;
8113;SDS011;4099;52.684;9.918;2022-08-04T13:37:00;3.00;;;2.70;;
8113;SDS011;4099;52.684;9.918;2022-08-04T13:42:08;4.32;;;3.00;;
8113;SDS011;4099;52.684;9.918;2022-08-04T13:47:13;2.90;;;2.70;;
8113;SDS011;4099;52.684;9.918;2022-08-04T13:52:19;2.90;;;2.70;;
8113;SDS011;4099;52.684;9.918;2022-08-04T13:57:28;3.15;;;2.90;;
8113;SDS011;4099;52.684;9.918;2022-08-04T14:02:33;4.07;;;2.85;;
8113;SDS011;4099;52.684;9.918;2022-08-04T14:07:44;3.47;;;2.58;;
8113;SDS011;4099;52.684;9.918;2022-08-04T14:12:49;3.22;;;3.03;;
8113;SDS011;4099;52.684;9.918;2022-08-04T14:17:52;2.88;;;2.67;;
8113;SDS011;4099;52.684;9.918;2022-08-04T14:22:55;3.50;;;2.67;;
8113;SDS011;4099;52.684;9.918;2022-08-04T14:28:02;3.03;;;2.72;;
8113;SDS011;4099;52.684;9.918;2022-08-04T14:33:06;2.53;;;2.33;;
8113;SDS011;4099;52.684;9.918;2022-08-04T14:38:09;3.58;;;2.38;;
8113;SDS011;4099;52.684;9.918;2022-08-04T14:43:16;2.63;;;2.42;;
8113;SDS011;4099;52.684;9.918;2022-08-04T14:48:18;2.45;;;2.25;;
8113;SDS011;4099;52.684;9.918;2022-08-04T14:53:21;2.42;;;1.98;;
8113;SDS011;4099;52.684;9.918;2022-08-04T14:58:28;2.67;;;2.50;;
8113;SDS011;4099;52.684;9.918;2022-08-04T15:03:32;4.03;;;2.58;;
8113;SDS011;4099;52.684;9.918;2022-08-04T15:08:34;2.30;;;2.20;;
8113;SDS011;4099;52.684;9.918;2022-08-04T15:13:38;3.83;;;2.63;;
8113;SDS011;4099;52.684;9.918;2022-08-04T15:18:40;2.63;;;2.28;;
8113;SDS011;4099;52.684;9.918;2022-08-04T15:23:41;2.53;;;2.33;;
8113;SDS011;4099;52.684;9.918;2022-08-04T15:28:46;2.25;;;2.15;;
8113;SDS011;4099;52.684;9.918;2022-08-04T15:33:51;2.53;;;2.22;;
8113;SDS011;4099;52.684;9.918;2022-08-04T15:38:57;2.72;;;2.20;;
8113;SDS011;4099;52.684;9.918;2022-08-04T15:50:02;4.43;;;2.28;;
8113;SDS011;4099;52.684;9.918;2022-08-04T16:11:56;5.45;;;2.35;;
8113;SDS011;4099;52.684;9.918;2022-08-04T16:17:12;5.63;;;2.42;;
8113;SDS011;4099;52.684;9.918;2022-08-04T16:22:32;4.40;;;2.55;;
8113;SDS011;4099;52.684;9.918;2022-08-04T16:27:39;2.90;;;2.65;;
8113;SDS011;4099;52.684;9.918;2022-08-04T16:32:43;3.67;;;2.50;;
8113;SDS011;4099;52.684;9.918;2022-08-04T16:37:47;4.13;;;2.60;;
8113;SDS011;4099;52.684;9.918;2022-08-04T16:42:54;4.80;;;2.70;;
8113;SDS011;4099;52.684;9.918;2022-08-04T16:47:59;2.50;;;2.30;;
8113;SDS011;4099;52.684;9.918;2022-08-04T16:53:08;5.60;;;2.60;;
8113;SDS011;4099;52.684;9.918;2022-08-04T16:58:14;5.70;;;2.40;;
8113;SDS011;4099;52.684;9.918;2022-08-04T17:03:17;3.65;;;2.58;;
8113;SDS011;4099;52.684;9.918;2022-08-04T17:08:19;2.50;;;2.30;;
8113;SDS011;4099;52.684;9.918;2022-08-04T17:13:33;3.40;;;2.17;;
8113;SDS011;4099;52.684;9.918;2022-08-04T17:18:37;5.63;;;2.13;;
8113;SDS011;4099;52.684;9.918;2022-08-04T17:23:41;3.00;;;1.98;;
8113;SDS011;4099;52.684;9.918;2022-08-04T17:28:47;3.13;;;2.40;;
8113;SDS011;4099;52.684;9.918;2022-08-04T17:33:55;2.58;;;2.17;;
8113;SDS011;4099;52.684;9.918;2022-08-04T17:38:59;2.42;;;2.05;;
8113;SDS011;4099;52.684;9.918;2022-08-04T17:44:05;2.38;;;1.90;;
8113;SDS011;4099;52.684;9.918;2022-08-04T17:49:08;1.95;;;1.85;;
8113;SDS011;4099;52.684;9.918;2022-08-04T17:54:13;2.10;;;2.00;;
8113;SDS011;4099;52.684;9.918;2022-08-04T17:59:19;2.17;;;1.95;;
8113;SDS011;4099;52.684;9.918;2022-08-04T18:09:51;1.95;;;1.80;;
8113;SDS011;4099;52.684;9.918;2022-08-04T18:14:58;2.15;;;1.95;;
8113;SDS011;4099;52.684;9.918;2022-08-04T18:20:03;2.47;;;2.28;;
8113;SDS011;4099;52.684;9.918;2022-08-04T18:25:08;2.25;;;2.05;;
8113;SDS011;4099;52.684;9.918;2022-08-04T18:30:14;3.30;;;2.25;;
8113;SDS011;4099;52.684;9.918;2022-08-04T18:35:17;2.90;;;2.10;;
8113;SDS011;4099;52.684;9.918;2022-08-04T18:40:19;2.40;;;2.20;;
8113;SDS011;4099;52.684;9.918;2022-08-04T18:45:23;2.40;;;2.20;;
8113;SDS011;4099;52.684;9.918;2022-08-04T18:50:26;4.85;;;2.78;;
8113;SDS011;4099;52.684;9.918;2022-08-04T18:55:29;2.65;;;2.45;;
8113;SDS011;4099;52.684;9.918;2022-08-04T19:00:32;4.57;;;2.42;;
8113;SDS011;4099;52.684;9.918;2022-08-04T19:05:35;2.42;;;2.17;;
8113;SDS011;4099;52.684;9.918;2022-08-04T19:10:38;2.97;;;2.23;;
8113;SDS011;4099;52.684;9.918;2022-08-04T19:15:42;3.63;;;2.50;;
8113;SDS011;4099;52.684;9.918;2022-08-04T19:20:44;2.70;;;2.50;;
8113;SDS011;4099;52.684;9.918;2022-08-04T19:25:47;2.83;;;2.63;;
8113;SDS011;4099;52.684;9.918;2022-08-04T19:30:53;2.78;;;2.58;;
8113;SDS011;4099;52.684;9.918;2022-08-04T19:35:56;2.88;;;2.47;;
8113;SDS011;4099;52.684;9.918;2022-08-04T19:40:59;2.85;;;2.55;;
8113;SDS011;4099;52.684;9.918;2022-08-04T19:46:03;3.00;;;2.70;;
8113;SDS011;4099;52.684;9.918;2022-08-04T19:51:05;2.60;;;2.40;;
8113;SDS011;4099;52.684;9.918;2022-08-04T19:56:08;4.67;;;3.07;;
8113;SDS011;4099;52.684;9.918;2022-08-04T20:01:12;3.13;;;2.83;;
8113;SDS011;4099;52.684;9.918;2022-08-04T20:06:15;4.87;;;3.00;;
8113;SDS011;4099;52.684;9.918;2022-08-04T20:11:17;5.47;;;3.00;;
8113;SDS011;4099;52.684;9.918;2022-08-04T20:16:22;3.35;;;3.05;;
8113;SDS011;4099;52.684;9.918;2022-08-04T20:21:25;5.23;;;2.93;;
8113;SDS011;4099;52.684;9.918;2022-08-04T20:26:28;4.30;;;3.37;;
8113;SDS011;4099;52.684;9.918;2022-08-04T20:31:32;5.07;;;2.97;;
8113;SDS011;4099;52.684;9.918;2022-08-04T20:36:34;3.93;;;3.10;;
8113;SDS011;4099;52.684;9.918;2022-08-04T20:41:37;4.53;;;3.00;;
8113;SDS011;4099;52.684;9.918;2022-08-04T20:46:41;7.30;;;2.93;;
8113;SDS011;4099;52.684;9.918;2022-08-04T20:51:43;5.03;;;2.97;;
8113;SDS011;4099;52.684;9.918;2022-08-04T20:56:46;3.20;;;2.90;;
8113;SDS011;4099;52.684;9.918;2022-08-04T21:01:50;4.20;;;3.07;;
8113;SDS011;4099;52.684;9.918;2022-08-04T21:06:52;3.37;;;3.00;;
8113;SDS011;4099;52.684;9.918;2022-08-04T21:11:55;4.90;;;3.50;;
8113;SDS011;4099;52.684;9.918;2022-08-04T21:16:59;4.73;;;3.37;;
8113;SDS011;4099;52.684;9.918;2022-08-04T21:22:02;5.47;;;3.67;;
8113;SDS011;4099;52.684;9.918;2022-08-04T21:27:07;3.73;;;3.00;;
8113;SDS011;4099;52.684;9.918;2022-08-04T21:32:11;4.70;;;2.83;;
8113;SDS011;4099;52.684;9.918;2022-08-04T21:37:13;3.97;;;3.50;;
8113;SDS011;4099;52.684;9.918;2022-08-04T21:42:16;5.30;;;3.37;;
8113;SDS011;4099;52.684;9.918;2022-08-04T21:47:20;5.03;;;3.40;;
8113;SDS011;4099;52.684;9.918;2022-08-04T21:52:22;5.83;;;3.43;;
8113;SDS011;4099;52.684;9.918;2022-08-04T21:57:25;4.10;;;3.67;;
8113;SDS011;4099;52.684;9.918;2022-08-04T22:02:29;4.60;;;3.10;;
8113;SDS011;4099;52.684;9.918;2022-08-04T22:07:31;6.77;;;3.27;;
8113;SDS011;4099;52.684;9.918;2022-08-04T22:12:33;5.27;;;3.33;;
8113;SDS011;4099;52.684;9.918;2022-08-04T22:17:37;4.87;;;3.50;;
8113;SDS011;4099;52.684;9.918;2022-08-04T22:22:40;5.70;;;3.63;;
8113;SDS011;4099;52.684;9.918;2022-08-04T22:27:43;5.70;;;3.80;;
8113;SDS011;4099;52.684;9.918;2022-08-04T22:33:04;4.93;;;3.60;;
8113;SDS011;4099;52.684;9.918;2022-08-04T22:38:07;8.63;;;3.50;;
8113;SDS011;4099;52.684;9.918;2022-08-04T22:43:10;6.97;;;3.70;;
8113;SDS011;4099;52.684;9.918;2022-08-04T22:48:14;5.10;;;3.50;;
8113;SDS011;4099;52.684;9.918;2022-08-04T22:53:16;6.10;;;3.37;;
8113;SDS011;4099;52.684;9.918;2022-08-04T22:58:18;4.90;;;3.67;;
8113;SDS011;4099;52.684;9.918;2022-08-04T23:03:22;5.70;;;4.00;;
8113;SDS011;4099;52.684;9.918;2022-08-04T23:08:25;6.93;;;4.10;;
8113;SDS011;4099;52.684;9.918;2022-08-04T23:13:27;4.90;;;4.40;;
8113;SDS011;4099;52.684;9.918;2022-08-04T23:18:32;9.47;;;3.97;;
8113;SDS011;4099;52.684;9.918;2022-08-04T23:23:34;6.87;;;4.20;;
8113;SDS011;4099;52.684;9.918;2022-08-04T23:28:37;5.73;;;4.23;;
8113;SDS011;4099;52.684;9.918;2022-08-04T23:33:41;6.83;;;4.93;;
8113;SDS011;4099;52.684;9.918;2022-08-04T23:38:43;7.87;;;5.20;;
8113;SDS011;4099;52.684;9.918;2022-08-04T23:43:44;7.80;;;4.97;;
8113;SDS011;4099;52.684;9.918;2022-08-04T23:48:47;6.67;;;4.67;;
8113;SDS011;4099;52.684;9.918;2022-08-04T23:53:51;7.83;;;4.70;;
8113;SDS011;4099;52.684;9.918;2022-08-04T23:58:52;8.13;;;5.10;;
